Donnybrook, North Dakota
Current Conditions -  °F | °C
As of 2:58 AM on Thursday 23 Oct 2014 (Local Time) from KMIB Reporting Station
Clear Clear  
Wind Chill: 40°   Ceiling: Unl
Heat Index: 44°   Visibility: 10mi
Dew Point: 36°   Wind: 8mph
Humidity: 72%   Direction: 230°SW
Pressure: 29.82"   Gusts: NA
Location:  48.51°N, 101.89°W
Report Text: KMIB 230758Z AUTO 23007KT 10SM CLR 07/02 A2982 RMK AO2 SLP107 T00690022 $
Loading
Personal Weather Stations






























Interactive Weather Map
Tropical Storm Tracking
New forecast layout! Learn more

10-Day Weather Forecast

Advertisements
Track Severe Weather on mobile